sensor_id;sensor_type;location;lat;lon;timestamp;pressure;altitude;pressure_sealevel;temperature
58102;BMP280;52034;51.926;6.320;2023-05-07T00:00:57;101603.09;;;16.60
58102;BMP280;52034;51.926;6.320;2023-05-07T00:01:59;101594.59;;;16.60
58102;BMP280;52034;51.926;6.320;2023-05-07T00:03:00;101599.66;;;16.64
58102;BMP280;52034;51.926;6.320;2023-05-07T00:04:01;101600.34;;;16.64
58102;BMP280;52034;51.926;6.320;2023-05-07T00:05:02;101591.13;;;16.64
58102;BMP280;52034;51.926;6.320;2023-05-07T00:06:03;101595.38;;;16.65
58102;BMP280;52034;51.926;6.320;2023-05-07T00:07:04;101589.69;;;16.63
58102;BMP280;52034;51.926;6.320;2023-05-07T00:08:04;101591.13;;;16.64
58102;BMP280;52034;51.926;6.320;2023-05-07T00:09:05;101594.59;;;16.60
58102;BMP280;52034;51.926;6.320;2023-05-07T00:10:06;101603.78;;;16.59
58102;BMP280;52034;51.926;6.320;2023-05-07T00:11:07;101590.97;;;16.58
58102;BMP280;52034;51.926;6.320;2023-05-07T00:12:07;101603.06;;;16.58
58102;BMP280;52034;51.926;6.320;2023-05-07T00:13:08;101595.16;;;16.55
58102;BMP280;52034;51.926;6.320;2023-05-07T00:14:08;101595.84;;;16.53
58102;BMP280;52034;51.926;6.320;2023-05-07T00:15:09;101597.97;;;16.53
58102;BMP280;52034;51.926;6.320;2023-05-07T00:16:09;101604.97;;;16.50
58102;BMP280;52034;51.926;6.320;2023-05-07T00:17:09;101604.97;;;16.50
58102;BMP280;52034;51.926;6.320;2023-05-07T00:18:10;101599.25;;;16.48
58102;BMP280;52034;51.926;6.320;2023-05-07T00:19:10;101597.00;;;16.42
58102;BMP280;52034;51.926;6.320;2023-05-07T00:20:11;101590.53;;;16.40
58102;BMP280;52034;51.926;6.320;2023-05-07T00:21:11;101593.50;;;16.44
58102;BMP280;52034;51.926;6.320;2023-05-07T00:22:12;101591.25;;;16.40
58102;BMP280;52034;51.926;6.320;2023-05-07T00:23:12;101597.75;;;16.45
58102;BMP280;52034;51.926;6.320;2023-05-07T00:24:12;101587.03;;;16.41
58102;BMP280;52034;51.926;6.320;2023-05-07T00:25:13;101592.16;;;16.47
58102;BMP280;52034;51.926;6.320;2023-05-07T00:26:13;101587.88;;;16.46
58102;BMP280;52034;51.926;6.320;2023-05-07T00:27:14;101587.13;;;16.45
58102;BMP280;52034;51.926;6.320;2023-05-07T00:28:15;101588.53;;;16.44
58102;BMP280;52034;51.926;6.320;2023-05-07T00:29:15;101587.03;;;16.41
58102;BMP280;52034;51.926;6.320;2023-05-07T00:30:15;101588.41;;;16.38
58102;BMP280;52034;51.926;6.320;2023-05-07T00:31:16;101585.56;;;16.40
58102;BMP280;52034;51.926;6.320;2023-05-07T00:32:16;101585.50;;;16.36
58102;BMP280;52034;51.926;6.320;2023-05-07T00:33:16;101586.88;;;16.35
58102;BMP280;52034;51.926;6.320;2023-05-07T00:34:17;101591.81;;;16.33
58102;BMP280;52034;51.926;6.320;2023-05-07T00:35:17;101590.50;;;16.38
58102;BMP280;52034;51.926;6.320;2023-05-07T00:36:18;101584.78;;;16.36
58102;BMP280;52034;51.926;6.320;2023-05-07T00:37:18;101584.78;;;16.36
58102;BMP280;52034;51.926;6.320;2023-05-07T00:38:18;101585.50;;;16.36
58102;BMP280;52034;51.926;6.320;2023-05-07T00:39:18;101576.94;;;16.34
58102;BMP280;52034;51.926;6.320;2023-05-07T00:40:19;101580.47;;;16.33
58102;BMP280;52034;51.926;6.320;2023-05-07T00:41:19;101573.25;;;16.28
58102;BMP280;52034;51.926;6.320;2023-05-07T00:42:20;101578.97;;;16.30
58102;BMP280;52034;51.926;6.320;2023-05-07T00:43:20;101573.97;;;16.28
58102;BMP280;52034;51.926;6.320;2023-05-07T00:44:21;101578.19;;;16.27
58102;BMP280;52034;51.926;6.320;2023-05-07T00:45:21;101568.97;;;16.27
58102;BMP280;52034;51.926;6.320;2023-05-07T00:46:22;101581.06;;;16.29
58102;BMP280;52034;51.926;6.320;2023-05-07T00:47:23;101571.81;;;16.29
58102;BMP280;52034;51.926;6.320;2023-05-07T00:48:24;101574.72;;;16.31
58102;BMP280;52034;51.926;6.320;2023-05-07T00:49:52;101569.06;;;16.31
58102;BMP280;52034;51.926;6.320;2023-05-07T00:50:51;101560.56;;;16.31
58102;BMP280;52034;51.926;6.320;2023-05-07T00:51:52;101571.91;;;16.31
58102;BMP280;52034;51.926;6.320;2023-05-07T00:52:53;101559.81;;;16.30
58102;BMP280;52034;51.926;6.320;2023-05-07T00:53:54;101564.06;;;16.29
58102;BMP280;52034;51.926;6.320;2023-05-07T00:54:54;101560.47;;;16.27
58102;BMP280;52034;51.926;6.320;2023-05-07T00:55:55;101557.56;;;16.25
58102;BMP280;52034;51.926;6.320;2023-05-07T00:56:55;101555.47;;;16.25
58102;BMP280;52034;51.926;6.320;2023-05-07T00:57:56;101557.56;;;16.25
58102;BMP280;52034;51.926;6.320;2023-05-07T00:58:56;101550.41;;;16.22
58102;BMP280;52034;51.926;6.320;2023-05-07T00:59:56;101556.81;;;16.22
58102;BMP280;52034;51.926;6.320;2023-05-07T01:00:57;101552.47;;;16.19
58102;BMP280;52034;51.926;6.320;2023-05-07T01:01:58;101547.53;;;16.20
58102;BMP280;52034;51.926;6.320;2023-05-07T01:02:59;101539.00;;;16.18
58102;BMP280;52034;51.926;6.320;2023-05-07T01:03:59;101549.72;;;16.21
58102;BMP280;52034;51.926;6.320;2023-05-07T01:05:00;101551.03;;;16.18
58102;BMP280;52034;51.926;6.320;2023-05-07T01:06:02;101546.06;;;16.17
58102;BMP280;52034;51.926;6.320;2023-05-07T01:07:02;101543.22;;;16.17
58102;BMP280;52034;51.926;6.320;2023-05-07T01:08:04;101538.88;;;16.14
58102;BMP280;52034;51.926;6.320;2023-05-07T01:09:05;101540.31;;;16.15
58102;BMP280;52034;51.926;6.320;2023-05-07T01:10:06;101542.41;;;16.12
58102;BMP280;52034;51.926;6.320;2023-05-07T01:11:07;101540.16;;;16.09
58102;BMP280;52034;51.926;6.320;2023-05-07T01:12:08;101534.47;;;16.07
58102;BMP280;52034;51.926;6.320;2023-05-07T01:13:10;101537.25;;;16.05
58102;BMP280;52034;51.926;6.320;2023-05-07T01:14:11;101530.81;;;16.02
58102;BMP280;52034;51.926;6.320;2023-05-07T01:15:11;101532.19;;;16.01
58102;BMP280;52034;51.926;6.320;2023-05-07T01:16:12;101527.91;;;16.00
58102;BMP280;52034;51.926;6.320;2023-05-07T01:17:13;101532.84;;;16.00
58102;BMP280;52034;51.926;6.320;2023-05-07T01:18:13;101520.06;;;15.97
58102;BMP280;52034;51.926;6.320;2023-05-07T01:19:17;101530.53;;;15.92
58102;BMP280;52034;51.926;6.320;2023-05-07T01:20:18;101536.91;;;15.93
58102;BMP280;52034;51.926;6.320;2023-05-07T01:21:25;101525.44;;;15.87
58102;BMP280;52034;51.926;6.320;2023-05-07T01:22:33;101541.75;;;15.88
58102;BMP280;52034;51.926;6.320;2023-05-07T01:23:34;101538.13;;;15.84
58102;BMP280;52034;51.926;6.320;2023-05-07T01:24:36;101533.78;;;15.81
58102;BMP280;52034;51.926;6.320;2023-05-07T01:25:37;101530.97;;;15.81
58102;BMP280;52034;51.926;6.320;2023-05-07T01:26:38;101537.22;;;15.77
58102;BMP280;52034;51.926;6.320;2023-05-07T01:27:39;101537.22;;;15.77
58102;BMP280;52034;51.926;6.320;2023-05-07T01:28:39;101538.00;;;15.80
58102;BMP280;52034;51.926;6.320;2023-05-07T01:29:40;101542.16;;;15.77
58102;BMP280;52034;51.926;6.320;2023-05-07T01:30:41;101544.97;;;15.77
58102;BMP280;52034;51.926;6.320;2023-05-07T01:31:44;101543.56;;;15.76
58102;BMP280;52034;51.926;6.320;2023-05-07T01:32:51;101546.44;;;15.78
58102;BMP280;52034;51.926;6.320;2023-05-07T01:33:52;101550.63;;;15.77
58102;BMP280;52034;51.926;6.320;2023-05-07T01:34:54;101548.50;;;15.75
58102;BMP280;52034;51.926;6.320;2023-05-07T01:35:56;101549.22;;;15.76
58102;BMP280;52034;51.926;6.320;2023-05-07T01:36:58;101550.63;;;15.77
58102;BMP280;52034;51.926;6.320;2023-05-07T01:38:00;101556.28;;;15.75
58102;BMP280;52034;51.926;6.320;2023-05-07T01:39:01;101557.59;;;15.72
58102;BMP280;52034;51.926;6.320;2023-05-07T01:40:03;101542.06;;;15.73
58102;BMP280;52034;51.926;6.320;2023-05-07T01:41:03;101554.78;;;15.72
58102;BMP280;52034;51.926;6.320;2023-05-07T01:42:04;101554.00;;;15.69
58102;BMP280;52034;51.926;6.320;2023-05-07T01:43:05;101546.19;;;15.68
58102;BMP280;52034;51.926;6.320;2023-05-07T01:44:08;101548.22;;;15.65
58102;BMP280;52034;51.926;6.320;2023-05-07T01:45:10;101548.94;;;15.66
58102;BMP280;52034;51.926;6.320;2023-05-07T01:46:12;101547.53;;;15.67
58102;BMP280;52034;51.926;6.320;2023-05-07T01:47:13;101550.34;;;15.65
58102;BMP280;52034;51.926;6.320;2023-05-07T01:48:15;101553.19;;;15.65
58102;BMP280;52034;51.926;6.320;2023-05-07T01:49:16;101544.56;;;15.61
58102;BMP280;52034;51.926;6.320;2023-05-07T01:50:18;101549.53;;;15.62
58102;BMP280;52034;51.926;6.320;2023-05-07T01:51:19;101552.38;;;15.62
58102;BMP280;52034;51.926;6.320;2023-05-07T01:52:21;101550.19;;;15.59
58102;BMP280;52034;51.926;6.320;2023-05-07T01:53:21;101543.78;;;15.58
58102;BMP280;52034;51.926;6.320;2023-05-07T01:54:27;101542.94;;;15.54
58102;BMP280;52034;51.926;6.320;2023-05-07T01:55:29;101545.06;;;15.53
58102;BMP280;52034;51.926;6.320;2023-05-07T01:56:29;101534.34;;;15.50
58102;BMP280;52034;51.926;6.320;2023-05-07T01:57:29;101543.59;;;15.52
58102;BMP280;52034;51.926;6.320;2023-05-07T01:58:30;101545.78;;;15.54
58102;BMP280;52034;51.926;6.320;2023-05-07T01:59:30;101543.59;;;15.52
58102;BMP280;52034;51.926;6.320;2023-05-07T02:00:31;101546.34;;;15.48
58102;BMP280;52034;51.926;6.320;2023-05-07T02:01:31;101539.91;;;15.46
58102;BMP280;52034;51.926;6.320;2023-05-07T02:02:32;101542.06;;;15.47
58102;BMP280;52034;51.926;6.320;2023-05-07T02:03:33;101547.09;;;15.51
58102;BMP280;52034;51.926;6.320;2023-05-07T02:04:41;101554.22;;;15.52
58102;BMP280;52034;51.926;6.320;2023-05-07T02:05:42;101542.16;;;15.51
58102;BMP280;52034;51.926;6.320;2023-05-07T02:07:01;101546.44;;;15.52
58102;BMP280;52034;51.926;6.320;2023-05-07T02:08:01;101554.22;;;15.52
58102;BMP280;52034;51.926;6.320;2023-05-07T02:09:03;101555.66;;;15.53
58102;BMP280;52034;51.926;6.320;2023-05-07T02:10:04;101550.09;;;15.55
58102;BMP280;52034;51.926;6.320;2023-05-07T02:11:05;101555.66;;;15.53
58102;BMP280;52034;51.926;6.320;2023-05-07T02:12:05;101555.59;;;15.51
58102;BMP280;52034;51.926;6.320;2023-05-07T02:13:06;101548.56;;;15.52
58102;BMP280;52034;51.926;6.320;2023-05-07T02:14:06;101551.31;;;15.50
58102;BMP280;52034;51.926;6.320;2023-05-07T02:15:07;101554.22;;;15.52
58102;BMP280;52034;51.926;6.320;2023-05-07T02:16:08;101553.50;;;15.51
58102;BMP280;52034;51.926;6.320;2023-05-07T02:17:09;101552.75;;;15.51
58102;BMP280;52034;51.926;6.320;2023-05-07T02:18:09;101552.72;;;15.49
58102;BMP280;52034;51.926;6.320;2023-05-07T02:19:09;101549.22;;;15.50
58102;BMP280;52034;51.926;6.320;2023-05-07T02:20:10;101551.31;;;15.50
58102;BMP280;52034;51.926;6.320;2023-05-07T02:21:14;101553.50;;;15.51
58102;BMP280;52034;51.926;6.320;2023-05-07T02:22:14;101549.22;;;15.50
58102;BMP280;52034;51.926;6.320;2023-05-07T02:23:15;101549.81;;;15.47
58102;BMP280;52034;51.926;6.320;2023-05-07T02:24:16;101547.00;;;15.47
58102;BMP280;52034;51.926;6.320;2023-05-07T02:25:16;101542.00;;;15.45
58102;BMP280;52034;51.926;6.320;2023-05-07T02:26:17;101551.22;;;15.46
58102;BMP280;52034;51.926;6.320;2023-05-07T02:27:17;101548.34;;;15.44
58102;BMP280;52034;51.926;6.320;2023-05-07T02:28:19;101553.28;;;15.43
58102;BMP280;52034;51.926;6.320;2023-05-07T02:29:29;101551.16;;;15.44
58102;BMP280;52034;51.926;6.320;2023-05-07T02:30:30;101549.78;;;15.45
58102;BMP280;52034;51.926;6.320;2023-05-07T02:31:32;101551.03;;;15.40
58102;BMP280;52034;51.926;6.320;2023-05-07T02:32:34;101551.78;;;15.40
58102;BMP280;52034;51.926;6.320;2023-05-07T02:33:34;101544.63;;;15.37
58102;BMP280;52034;51.926;6.320;2023-05-07T02:34:36;101548.09;;;15.36
58102;BMP280;52034;51.926;6.320;2023-05-07T02:35:37;101543.78;;;15.33
58102;BMP280;52034;51.926;6.320;2023-05-07T02:36:38;101550.16;;;15.33
58102;BMP280;52034;51.926;6.320;2023-05-07T02:37:43;101551.53;;;15.32
58102;BMP280;52034;51.926;6.320;2023-05-07T02:38:43;101548.72;;;15.32
58102;BMP280;52034;51.926;6.320;2023-05-07T02:39:44;101543.00;;;15.30
58102;BMP280;52034;51.926;6.320;2023-05-07T02:40:44;101538.78;;;15.31
58102;BMP280;52034;51.926;6.320;2023-05-07T02:41:44;101543.78;;;15.33
58102;BMP280;52034;51.926;6.320;2023-05-07T02:42:45;101546.66;;;15.35
58102;BMP280;52034;51.926;6.320;2023-05-07T02:43:45;101537.44;;;15.34
58102;BMP280;52034;51.926;6.320;2023-05-07T02:44:46;101540.28;;;15.34
58102;BMP280;52034;51.926;6.320;2023-05-07T02:45:46;101543.84;;;15.35
58102;BMP280;52034;51.926;6.320;2023-05-07T02:46:48;101545.31;;;15.38
58102;BMP280;52034;51.926;6.320;2023-05-07T02:47:48;101546.06;;;15.38
58102;BMP280;52034;51.926;6.320;2023-05-07T02:48:48;101536.78;;;15.36
58102;BMP280;52034;51.926;6.320;2023-05-07T02:49:49;101535.34;;;15.35
58102;BMP280;52034;51.926;6.320;2023-05-07T02:50:49;101536.06;;;15.35
58102;BMP280;52034;51.926;6.320;2023-05-07T02:51:49;101533.16;;;15.33
58102;BMP280;52034;51.926;6.320;2023-05-07T02:52:55;101527.50;;;15.33
58102;BMP280;52034;51.926;6.320;2023-05-07T02:53:55;101538.81;;;15.33
58102;BMP280;52034;51.926;6.320;2023-05-07T02:54:56;101533.88;;;15.34
58102;BMP280;52034;51.926;6.320;2023-05-07T02:55:57;101536.72;;;15.34
58102;BMP280;52034;51.926;6.320;2023-05-07T02:56:57;101536.69;;;15.32
58102;BMP280;52034;51.926;6.320;2023-05-07T02:57:58;101540.94;;;15.33
58102;BMP280;52034;51.926;6.320;2023-05-07T02:58:59;101548.03;;;15.34
58102;BMP280;52034;51.926;6.320;2023-05-07T03:00:13;101545.81;;;15.30
58102;BMP280;52034;51.926;6.320;2023-05-07T03:01:17;101552.97;;;15.33
58102;BMP280;52034;51.926;6.320;2023-05-07T03:02:27;101547.25;;;15.31
58102;BMP280;52034;51.926;6.320;2023-05-07T03:03:27;101545.09;;;15.30
58102;BMP280;52034;51.926;6.320;2023-05-07T03:04:28;101537.88;;;15.25
58102;BMP280;52034;51.926;6.320;2023-05-07T03:05:28;101539.34;;;15.28
58102;BMP280;52034;51.926;6.320;2023-05-07T03:06:29;101532.94;;;15.25
58102;BMP280;52034;51.926;6.320;2023-05-07T03:07:29;101549.81;;;15.21
58102;BMP280;52034;51.926;6.320;2023-05-07T03:08:30;101549.06;;;15.21
58102;BMP280;52034;51.926;6.320;2023-05-07T03:09:30;101542.72;;;15.20
58102;BMP280;52034;51.926;6.320;2023-05-07T03:10:30;101546.25;;;15.21
58102;BMP280;52034;51.926;6.320;2023-05-07T03:11:31;101551.19;;;15.20
58102;BMP280;52034;51.926;6.320;2023-05-07T03:12:31;101554.75;;;15.21
58102;BMP280;52034;51.926;6.320;2023-05-07T03:13:32;101554.03;;;15.20
58102;BMP280;52034;51.926;6.320;2023-05-07T03:14:32;101549.81;;;15.21
58102;BMP280;52034;51.926;6.320;2023-05-07T03:15:32;101551.13;;;15.18
58102;BMP280;52034;51.926;6.320;2023-05-07T03:16:33;101558.13;;;15.15
58102;BMP280;52034;51.926;6.320;2023-05-07T03:17:33;101548.84;;;15.13
58102;BMP280;52034;51.926;6.320;2023-05-07T03:18:33;101551.00;;;15.14
58102;BMP280;52034;51.926;6.320;2023-05-07T03:19:34;101546.63;;;15.09
58102;BMP280;52034;51.926;6.320;2023-05-07T03:20:34;101553.75;;;15.10
58102;BMP280;52034;51.926;6.320;2023-05-07T03:21:36;101545.25;;;15.10
58102;BMP280;52034;51.926;6.320;2023-05-07T03:22:36;101546.72;;;15.13
58102;BMP280;52034;51.926;6.320;2023-05-07T03:23:37;101545.16;;;15.08
58102;BMP280;52034;51.926;6.320;2023-05-07T03:24:37;101555.09;;;15.09
58102;BMP280;52034;51.926;6.320;2023-05-07T03:25:38;101555.75;;;15.08
58102;BMP280;52034;51.926;6.320;2023-05-07T03:26:38;101554.38;;;15.09
58102;BMP280;52034;51.926;6.320;2023-05-07T03:27:38;101555.75;;;15.08
58102;BMP280;52034;51.926;6.320;2023-05-07T03:28:39;101557.22;;;15.09
58102;BMP280;52034;51.926;6.320;2023-05-07T03:29:43;101552.88;;;15.06
58102;BMP280;52034;51.926;6.320;2023-05-07T03:30:44;101554.38;;;15.09
58102;BMP280;52034;51.926;6.320;2023-05-07T03:31:44;101557.09;;;15.05
58102;BMP280;52034;51.926;6.320;2023-05-07T03:32:45;101549.19;;;15.01
58102;BMP280;52034;51.926;6.320;2023-05-07T03:33:53;101553.28;;;14.96
58102;BMP280;52034;51.926;6.320;2023-05-07T03:34:55;101550.44;;;14.96
58102;BMP280;52034;51.926;6.320;2023-05-07T03:35:56;101551.19;;;14.97
58102;BMP280;52034;51.926;6.320;2023-05-07T03:36:58;101551.06;;;14.93
58102;BMP280;52034;51.926;6.320;2023-05-07T03:37:59;101546.91;;;14.96
58102;BMP280;52034;51.926;6.320;2023-05-07T03:39:02;101546.19;;;14.95
58102;BMP280;52034;51.926;6.320;2023-05-07T03:40:10;101539.03;;;14.93
58102;BMP280;52034;51.926;6.320;2023-05-07T03:41:17;101544.69;;;14.93
58102;BMP280;52034;51.926;6.320;2023-05-07T03:42:19;101541.06;;;14.90
58102;BMP280;52034;51.926;6.320;2023-05-07T03:43:23;101540.41;;;14.92
58102;BMP280;52034;51.926;6.320;2023-05-07T03:44:30;101548.91;;;14.92
58102;BMP280;52034;51.926;6.320;2023-05-07T03:45:33;101544.03;;;14.94
58102;BMP280;52034;51.926;6.320;2023-05-07T03:46:44;101541.22;;;14.94
58102;BMP280;52034;51.926;6.320;2023-05-07T03:47:46;101555.41;;;14.96
58102;BMP280;52034;51.926;6.320;2023-05-07T03:48:50;101549.78;;;14.98
58102;BMP280;52034;51.926;6.320;2023-05-07T03:49:52;101549.09;;;14.98
58102;BMP280;52034;51.926;6.320;2023-05-07T03:50:56;101548.34;;;14.97
58102;BMP280;52034;51.926;6.320;2023-05-07T03:51:57;101554.84;;;15.01
58102;BMP280;52034;51.926;6.320;2023-05-07T03:52:58;101547.72;;;14.98
58102;BMP280;52034;51.926;6.320;2023-05-07T03:53:58;101549.88;;;15.00
58102;BMP280;52034;51.926;6.320;2023-05-07T03:55:00;101547.06;;;15.00
58102;BMP280;52034;51.926;6.320;2023-05-07T03:56:01;101552.72;;;15.02
58102;BMP280;52034;51.926;6.320;2023-05-07T03:57:04;101549.16;;;14.99
58102;BMP280;52034;51.926;6.320;2023-05-07T03:58:04;101553.38;;;14.98
58102;BMP280;52034;51.926;6.320;2023-05-07T03:59:05;101550.53;;;14.98
58102;BMP280;52034;51.926;6.320;2023-05-07T04:00:05;101554.09;;;14.99
58102;BMP280;52034;51.926;6.320;2023-05-07T04:01:20;101552.53;;;14.94
58102;BMP280;52034;51.926;6.320;2023-05-07T04:02:21;101549.69;;;14.94
58102;BMP280;52034;51.926;6.320;2023-05-07T04:03:22;101557.31;;;14.89
58102;BMP280;52034;51.926;6.320;2023-05-07T04:04:22;101558.72;;;14.89
58102;BMP280;52034;51.926;6.320;2023-05-07T04:05:23;101557.31;;;14.89
58102;BMP280;52034;51.926;6.320;2023-05-07T04:06:26;101566.56;;;14.92
58102;BMP280;52034;51.926;6.320;2023-05-07T04:07:27;101563.09;;;14.93
58102;BMP280;52034;51.926;6.320;2023-05-07T04:08:28;101561.84;;;14.98
58102;BMP280;52034;51.926;6.320;2023-05-07T04:09:29;101562.59;;;15.01
58102;BMP280;52034;51.926;6.320;2023-05-07T04:10:31;101562.59;;;15.01
58102;BMP280;52034;51.926;6.320;2023-05-07T04:11:34;101562.69;;;15.03
58102;BMP280;52034;51.926;6.320;2023-05-07T04:12:34;101564.88;;;15.04
58102;BMP280;52034;51.926;6.320;2023-05-07T04:13:35;101564.97;;;15.08
58102;BMP280;52034;51.926;6.320;2023-05-07T04:14:37;101569.28;;;15.11
58102;BMP280;52034;51.926;6.320;2023-05-07T04:15:37;101570.00;;;15.12
58102;BMP280;52034;51.926;6.320;2023-05-07T04:16:41;101561.50;;;15.12
58102;BMP280;52034;51.926;6.320;2023-05-07T04:17:42;101562.25;;;15.12
58102;BMP280;52034;51.926;6.320;2023-05-07T04:18:42;101560.09;;;15.11
58102;BMP280;52034;51.926;6.320;2023-05-07T04:19:42;101557.97;;;15.11
58102;BMP280;52034;51.926;6.320;2023-05-07T04:20:46;101558.53;;;15.06
58102;BMP280;52034;51.926;6.320;2023-05-07T04:21:48;101562.34;;;15.14
58102;BMP280;52034;51.926;6.320;2023-05-07T04:22:48;101558.03;;;15.13
58102;BMP280;52034;51.926;6.320;2023-05-07T04:23:49;101561.50;;;15.12
58102;BMP280;52034;51.926;6.320;2023-05-07T04:24:49;101555.84;;;15.12
58102;BMP280;52034;51.926;6.320;2023-05-07T04:25:50;101564.50;;;15.16
58102;BMP280;52034;51.926;6.320;2023-05-07T04:27:11;101564.41;;;15.14
58102;BMP280;52034;51.926;6.320;2023-05-07T04:28:12;101565.91;;;15.17
58102;BMP280;52034;51.926;6.320;2023-05-07T04:29:13;101573.84;;;15.20
58102;BMP280;52034;51.926;6.320;2023-05-07T04:30:15;101568.94;;;15.23
58102;BMP280;52034;51.926;6.320;2023-05-07T04:31:15;101568.19;;;15.22
58102;BMP280;52034;51.926;6.320;2023-05-07T04:32:16;101566.84;;;15.23
58102;BMP280;52034;51.926;6.320;2023-05-07T04:33:17;101569.00;;;15.25
58102;BMP280;52034;51.926;6.320;2023-05-07T04:34:18;101569.00;;;15.25
58102;BMP280;52034;51.926;6.320;2023-05-07T04:35:19;101564.72;;;15.24
58102;BMP280;52034;51.926;6.320;2023-05-07T04:36:19;101573.31;;;15.28
58102;BMP280;52034;51.926;6.320;2023-05-07T04:37:32;101568.28;;;15.24
58102;BMP280;52034;51.926;6.320;2023-05-07T04:38:33;101569.72;;;15.25
58102;BMP280;52034;51.926;6.320;2023-05-07T04:39:36;101560.50;;;15.25
58102;BMP280;52034;51.926;6.320;2023-05-07T04:40:36;101564.59;;;15.20
58102;BMP280;52034;51.926;6.320;2023-05-07T04:41:37;101562.38;;;15.16
58102;BMP280;52034;51.926;6.320;2023-05-07T04:42:39;101557.50;;;15.19
58102;BMP280;52034;51.926;6.320;2023-05-07T04:43:41;101558.22;;;15.19
58102;BMP280;52034;51.926;6.320;2023-05-07T04:44:41;101564.50;;;15.16
58102;BMP280;52034;51.926;6.320;2023-05-07T04:45:42;101565.91;;;15.17
58102;BMP280;52034;51.926;6.320;2023-05-07T04:46:43;101564.53;;;15.18
58102;BMP280;52034;51.926;6.320;2023-05-07T04:47:43;101562.97;;;15.13
58102;BMP280;52034;51.926;6.320;2023-05-07T04:48:44;101573.84;;;15.20
58102;BMP280;52034;51.926;6.320;2023-05-07T04:49:46;101564.59;;;15.20
58102;BMP280;52034;51.926;6.320;2023-05-07T04:50:49;101568.81;;;15.19
58102;BMP280;52034;51.926;6.320;2023-05-07T04:51:51;101575.28;;;15.21
58102;BMP280;52034;51.926;6.320;2023-05-07T04:52:54;101566.06;;;15.21
58102;BMP280;52034;51.926;6.320;2023-05-07T04:53:55;101567.53;;;15.24
58102;BMP280;52034;51.926;6.320;2023-05-07T04:54:55;101578.94;;;15.26
58102;BMP280;52034;51.926;6.320;2023-05-07T04:55:57;101573.28;;;15.26
58102;BMP280;52034;51.926;6.320;2023-05-07T04:56:58;101575.47;;;15.27
58102;BMP280;52034;51.926;6.320;2023-05-07T04:57:59;101574.00;;;15.26
58102;BMP280;52034;51.926;6.320;2023-05-07T04:59:02;101578.97;;;15.28
58102;BMP280;52034;51.926;6.320;2023-05-07T05:00:03;101583.31;;;15.31
58102;BMP280;52034;51.926;6.320;2023-05-07T05:01:06;101582.06;;;15.36
58102;BMP280;52034;51.926;6.320;2023-05-07T05:02:06;101579.13;;;15.32
58102;BMP280;52034;51.926;6.320;2023-05-07T05:03:07;101581.22;;;15.31
58102;BMP280;52034;51.926;6.320;2023-05-07T05:04:08;101580.50;;;15.31
58102;BMP280;52034;51.926;6.320;2023-05-07T05:05:08;101576.88;;;15.28
58102;BMP280;52034;51.926;6.320;2023-05-07T05:06:11;101576.88;;;15.28
58102;BMP280;52034;51.926;6.320;2023-05-07T05:07:11;101586.88;;;15.31
58102;BMP280;52034;51.926;6.320;2023-05-07T05:08:12;101588.97;;;15.31
58102;BMP280;52034;51.926;6.320;2023-05-07T05:09:15;101582.72;;;15.34
58102;BMP280;52034;51.926;6.320;2023-05-07T05:10:17;101591.94;;;15.35
58102;BMP280;52034;51.926;6.320;2023-05-07T05:11:17;101580.56;;;15.33
58102;BMP280;52034;51.926;6.320;2023-05-07T05:12:18;101583.50;;;15.37
58102;BMP280;52034;51.926;6.320;2023-05-07T05:13:18;101589.91;;;15.37
58102;BMP280;52034;51.926;6.320;2023-05-07T05:14:19;101589.06;;;15.33
58102;BMP280;52034;51.926;6.320;2023-05-07T05:15:19;101596.94;;;15.36
58102;BMP280;52034;51.926;6.320;2023-05-07T05:16:19;101590.47;;;15.34
58102;BMP280;52034;51.926;6.320;2023-05-07T05:17:20;101591.28;;;15.36
58102;BMP280;52034;51.926;6.320;2023-05-07T05:18:20;101592.00;;;15.37
58102;BMP280;52034;51.926;6.320;2023-05-07T05:19:21;101587.72;;;15.36
58102;BMP280;52034;51.926;6.320;2023-05-07T05:20:21;101597.66;;;15.37
58102;BMP280;52034;51.926;6.320;2023-05-07T05:21:23;101589.16;;;15.37
58102;BMP280;52034;51.926;6.320;2023-05-07T05:22:26;101593.47;;;15.40
58102;BMP280;52034;51.926;6.320;2023-05-07T05:23:30;101596.31;;;15.40
58102;BMP280;52034;51.926;6.320;2023-05-07T05:24:31;101594.81;;;15.37
58102;BMP280;52034;51.926;6.320;2023-05-07T05:25:31;101585.63;;;15.36
58102;BMP280;52034;51.926;6.320;2023-05-07T05:26:33;101595.47;;;15.35
58102;BMP280;52034;51.926;6.320;2023-05-07T05:27:34;101591.34;;;15.38
58102;BMP280;52034;51.926;6.320;2023-05-07T05:28:35;101598.97;;;15.34
58102;BMP280;52034;51.926;6.320;2023-05-07T05:29:36;101589.91;;;15.37
58102;BMP280;52034;51.926;6.320;2023-05-07T05:30:37;101601.31;;;15.41
58102;BMP280;52034;51.926;6.320;2023-05-07T05:31:37;101594.94;;;15.41
58102;BMP280;52034;51.926;6.320;2023-05-07T05:32:37;101595.56;;;15.37
58102;BMP280;52034;51.926;6.320;2023-05-07T05:33:39;101590.66;;;15.40
58102;BMP280;52034;51.926;6.320;2023-05-07T05:34:41;101591.34;;;15.38
58102;BMP280;52034;51.926;6.320;2023-05-07T05:35:41;101594.94;;;15.41
58102;BMP280;52034;51.926;6.320;2023-05-07T05:36:45;101598.41;;;15.39
58102;BMP280;52034;51.926;6.320;2023-05-07T05:37:47;101598.50;;;15.41
58102;BMP280;52034;51.926;6.320;2023-05-07T05:38:48;101595.66;;;15.41
58102;BMP280;52034;51.926;6.320;2023-05-07T05:39:48;101590.72;;;15.42
58102;BMP280;52034;51.926;6.320;2023-05-07T05:40:49;101596.50;;;15.46
58102;BMP280;52034;51.926;6.320;2023-05-07T05:41:50;101593.75;;;15.48
58102;BMP280;52034;51.926;6.320;2023-05-07T05:42:50;101598.03;;;15.51
58102;BMP280;52034;51.926;6.320;2023-05-07T05:43:51;101590.91;;;15.48
58102;BMP280;52034;51.926;6.320;2023-05-07T05:44:53;101595.19;;;15.49
58102;BMP280;52034;51.926;6.320;2023-05-07T05:45:53;101592.22;;;15.45
58102;BMP280;52034;51.926;6.320;2023-05-07T05:46:55;101602.25;;;15.50
58102;BMP280;52034;51.926;6.320;2023-05-07T05:47:57;101598.69;;;15.49
58102;BMP280;52034;51.926;6.320;2023-05-07T05:48:58;101596.69;;;15.52
58102;BMP280;52034;51.926;6.320;2023-05-07T05:49:58;101606.72;;;15.57